Victor, MT (59875)

4:42 PM MDT on August 31, 2015 (GMT -0600)
MSU - Western Ag Research Center | | Change Station
CLOSE
Current Station
Personal Weather Station
Location: Corvallis, MT
Elevation: 3596 ft
Nearby Weather Stations

Elev 3596 ft 46.33 °N, 114.08 °W | Updated 5 seconds ago

Clear
Clear
74.2 °F
Feels Like 77 °F
N
0.0
Wind Variable Wind from NNW
Gusts 6.0 mph

Today
High -- | Low -- °F
--% Chance of Precip.
Yesterday
High -- | Low -- °F
Precip. -- in
6:55 AM 8:17 PM
Waning Gibbous, 93% visible
Pressure 29.96 in
Visibility 10.0 miles
Clouds Mostly Cloudy 7000 ft
Heat Index 77 °F
Dew Point 48 °F
Humidity 39%
Rainfall in
Snow Depth Not available.
UV out of 12
Pollen 7.90 out of 12
Air Quality Not available.
Flu Activity Not available.
METAR KMSO 312153Z 00000KT 10SM BKN070 22/05 A2998 RMK AO2 SLP146 T02170050
Pressure 29.96 in
Visibility 10.0 miles
Clouds Mostly Cloudy 7000 ft
Heat Index 77 °F
Dew Point 48 °F
Humidity 39%
Rainfall in
Snow Depth Not available.
UV out of 12
Pollen 7.90 out of 12
Air Quality Not available.
Flu Activity Not available.
METAR KMSO 312153Z 00000KT 10SM BKN070 22/05 A2998 RMK AO2 SLP146 T02170050

10-Day Weather Forecast

×

Almanac

Astronomy

Aug. 31, 2015 Rise Set
Actual Time
Civil Twilight
Nautical Twilight
Astronomical Twilight
Moon
Length of Visible Light
Length of Day
Tomorrow will be .
, % of the Moon is Illuminated

Today's Extremes

State Highs State Lows

Community

WunderPhotos

Upload Photos

1,851,390 photos uploaded!

WunderBlogs® & News

Nearby

Air Quality

  Air Quality AQ Index Pollutant
Not available.

Snow Depth

Station Depth Elevation

Earthquake Activity

City Distance Mag. Time & Date
Minimum magnitude displayed is 2.5.

Coastal Water Temperatures

Place Temperature

Stations

Nearby Weather Stations

Station Location Temp. Windchill Dew Point Humidity Wind Precip. Elev Updated Type